Time;durP1;ratioP1;P1;durP2;ratioP2;P2;SDS_P1;SDS_P2;PMS_P1;PMS_P2;Temp;Humidity;BMP_temperature;BMP_pressure;BME280_temperature;BME280_humidity;BME280_pressure;Samples;Min_cycle;Max_cycle;Signal;HPM_P1;HPM_P2
2022/10/31 00:00:47;;;;;;;;;;;;;;;;;;5111533;28;2083;-41
2022/10/31 00:03:15;;;;;;;;;;;;;;;;;;5112015;28;1998;-42
2022/10/31 00:05:46;;;;;;;;;;;;;;;;;;5111590;28;1707;-40
2022/10/31 00:08:14;;;;;;;;;;;;;;;;;;5112037;28;1903;-40
2022/10/31 00:10:41;;;;;;;;;;;;;;;;;;5111826;28;1691;-44
2022/10/31 00:13:09;;;;;;;;;;;;;;;;;;5111965;28;1621;-39
2022/10/31 00:15:37;;;;;;;;;;;;;;;;;;5111712;28;1741;-43
2022/10/31 00:18:04;;;;;;;;;;;;;;;;;;5111949;28;1812;-46
2022/10/31 00:20:31;;;;;;;;;;;;;;;;;;5112222;28;1836;-42
2022/10/31 00:22:59;;;;;;;;;;;;;;;;;;5111864;28;2175;-41
2022/10/31 00:25:27;;;;;;;;;;;;;;;;;;5111709;28;1860;-45
2022/10/31 00:27:54;;;;;;;;;;;;;;;;;;5111752;28;2521;-43
2022/10/31 00:30:21;;;;;;;;;;;;;;;;;;5111456;28;1947;-41
2022/10/31 00:32:48;;;;;;;;;;;;;;;;;;5111525;28;1656;-42
2022/10/31 00:35:16;;;;;;;;;;;;;;;;;;5111672;28;2021;-42
2022/10/31 00:37:44;;;;;;;;;;;;;;;;;;5111470;28;2179;-41
2022/10/31 00:40:11;;;;;;;;;;;;;;;;;;5110243;28;1743;-42
2022/10/31 00:42:41;;;;;;;;;;;;;;;;;;5111246;28;1910;-41
2022/10/31 00:45:09;;;;;;;;;;;;;;;;;;5111557;28;1964;-45
2022/10/31 00:47:37;;;;;;;;;;;;;;;;;;5111577;28;1912;-42
2022/10/31 00:50:05;;;;;;;;;;;;;;;;;;5111413;28;1967;-41
2022/10/31 00:52:32;;;;;;;;;;;;;;;;;;5111745;28;1611;-43
2022/10/31 00:54:59;;;;;;;;;;;;;;;;;;5111167;28;1911;-41
2022/10/31 00:57:26;;;;;;;;;;;;;;;;;;5111441;28;2275;-40
2022/10/31 00:59:53;;;;;;;;;;;;;;;;;;5114034;28;1780;-40
2022/10/31 01:02:20;;;;;;;;;;;;;;;;;;5114156;28;1809;-42
2022/10/31 01:04:48;;;;;;;;;;;;;;;;;;5115363;28;2016;-41
2022/10/31 01:07:15;;;;;;;;;;;;;;;;;;5115633;28;2029;-40
2022/10/31 01:09:43;;;;;;;;;;;;;;;;;;5113821;28;2005;-40
2022/10/31 01:12:11;;;;;;;;;;;;;;;;;;5115217;28;1954;-41
2022/10/31 01:14:42;;;;;;;;;;;;;;;;;;5115122;28;1649;-41
2022/10/31 01:17:09;;;;;;;;;;;;;;;;;;5115113;28;1743;-40
2022/10/31 01:19:36;;;;;;;;;;;;;;;;;;5115292;28;1929;-40
2022/10/31 01:22:03;;;;;;;;;;;;;;;;;;5115128;28;2142;-44
2022/10/31 01:24:30;;;;;;;;;;;;;;;;;;5113939;28;2335;-40
2022/10/31 01:26:58;;;;;;;;;;;;;;;;;;5115169;28;1834;-39
2022/10/31 01:29:25;;;;;;;;;;;;;;;;;;5115039;28;2016;-40
2022/10/31 01:31:52;;;;;;;;;;;;;;;;;;5113437;28;1739;-40
2022/10/31 01:34:21;;;;;;;;;;;;;;;;;;5114776;28;2167;-41
2022/10/31 01:36:50;;;;;;;;;;;;;;;;;;5114725;27;2393;-40
2022/10/31 01:39:19;;;;;;;;;;;;;;;;;;5114627;28;1573;-43
2022/10/31 01:41:47;;;;;;;;;;;;;;;;;;5114694;28;1947;-43
2022/10/31 01:44:14;;;;;;;;;;;;;;;;;;5113178;28;1945;-41
2022/10/31 01:46:44;;;;;;;;;;;;;;;;;;5114716;28;1979;-44
2022/10/31 01:49:14;;;;;;;;;;;;;;;;;;5114224;27;2048;-40
2022/10/31 01:51:45;;;;;;;;;;;;;;;;;;5123349;27;2062;-46
2022/10/31 01:54:14;;;;;;;;;;;;;;;;;;5114578;28;1705;-39
2022/10/31 01:56:45;;;;;;;;;;;;;;;;;;5114525;28;2058;-38
2022/10/31 01:59:16;;;;;;;;;;;;;;;;;;5114493;28;1961;-44
2022/10/31 02:01:43;;;;;;;;;;;;;;;;;;5114167;28;2114;-43
2022/10/31 02:04:11;;;;;;;;;;;;;;;;;;5114582;28;2105;-40
2022/10/31 02:06:45;;;;;;;;;;;;;;;;;;5114521;28;1925;-40
2022/10/31 02:09:12;;;;;;;;;;;;;;;;;;5113756;28;1908;-42
2022/10/31 02:11:40;;;;;;;;;;;;;;;;;;5114479;28;1971;-41
2022/10/31 02:14:10;;;;;;;;;;;;;;;;;;5112849;28;2185;-40
2022/10/31 02:16:37;;;;;;;;;;;;;;;;;;5113019;28;1826;-39
2022/10/31 02:19:07;;;;;;;;;;;;;;;;;;5112670;28;2231;-40
2022/10/31 02:21:39;;;;;;;;;;;;;;;;;;5096219;28;1814;-40
2022/10/31 02:24:19;;;;;;;;;;;;;;;;;;5112724;28;1767;-43
2022/10/31 02:26:52;;;;;;;;;;;;;;;;;;5112584;28;2118;-41
2022/10/31 02:29:28;;;;;;;;;;;;;;;;;;5112411;28;1917;-44
2022/10/31 02:32:10;;;;;;;;;;;;;;;;;;5112616;28;1562;-42
2022/10/31 02:34:44;;;;;;;;;;;;;;;;;;5113614;28;1885;-45
2022/10/31 02:37:14;;;;;;;;;;;;;;;;;;5112397;28;1610;-42
2022/10/31 02:39:59;;;;;;;;;;;;;;;;;;5113805;28;1817;-40
2022/10/31 02:43:00;;;;;;;;;;;;;;;;;;5112452;28;1777;-43
2022/10/31 02:45:47;;;;;;;;;;;;;;;;;;5112106;28;1723;-42
2022/10/31 02:48:22;;;;;;;;;;;;;;;;;;5112347;28;2339;-41
2022/10/31 02:50:54;;;;;;;;;;;;;;;;;;5111877;28;1972;-40
2022/10/31 02:53:21;;;;;;;;;;;;;;;;;;5113295;28;1578;-40
2022/10/31 02:55:56;;;;;;;;;;;;;;;;;;5111907;28;1826;-40
2022/10/31 02:58:26;;;;;;;;;;;;;;;;;;5113288;28;1856;-46
2022/10/31 03:01:11;;;;;;;;;;;;;;;;;;5113461;28;1471;-42
2022/10/31 03:03:58;;;;;;;;;;;;;;;;;;5112082;28;1950;-40
2022/10/31 03:06:29;;;;;;;;;;;;;;;;;;5112784;28;2308;-40
2022/10/31 03:08:56;;;;;;;;;;;;;;;;;;5112932;27;1906;-40
2022/10/31 03:11:28;;;;;;;;;;;;;;;;;;5111759;28;2014;-41
2022/10/31 03:14:04;;;;;;;;;;;;;;;;;;5112899;28;1592;-42
2022/10/31 03:16:38;;;;;;;;;;;;;;;;;;5111335;28;1712;-40
2022/10/31 03:19:08;;;;;;;;;;;;;;;;;;5111474;28;1627;-49
2022/10/31 03:21:37;;;;;;;;;;;;;;;;;;5112256;28;1899;-43
2022/10/31 03:24:05;;;;;;;;;;;;;;;;;;5112766;28;1720;-40
2022/10/31 03:26:35;;;;;;;;;;;;;;;;;;5111427;28;1807;-41
2022/10/31 03:29:04;;;;;;;;;;;;;;;;;;5111273;28;2009;-42
2022/10/31 03:31:35;;;;;;;;;;;;;;;;;;5111579;28;1876;-41
2022/10/31 03:34:06;;;;;;;;;;;;;;;;;;5112691;28;1843;-41
2022/10/31 03:36:34;;;;;;;;;;;;;;;;;;5111356;28;2161;-42
2022/10/31 03:39:05;;;;;;;;;;;;;;;;;;5111351;28;2161;-43
2022/10/31 03:41:38;;;;;;;;;;;;;;;;;;5112452;28;1915;-39
2022/10/31 03:44:08;;;;;;;;;;;;;;;;;;5112361;28;1748;-40
2022/10/31 03:46:38;;;;;;;;;;;;;;;;;;5111117;28;2134;-45
2022/10/31 03:49:05;;;;;;;;;;;;;;;;;;5110936;28;1914;-41
2022/10/31 03:51:48;;;;;;;;;;;;;;;;;;5119785;27;1746;-41
2022/10/31 03:54:18;;;;;;;;;;;;;;;;;;5111111;28;1930;-43
2022/10/31 03:56:57;;;;;;;;;;;;;;;;;;5111268;28;1642;-41
2022/10/31 03:59:31;;;;;;;;;;;;;;;;;;5112313;28;1828;-40
2022/10/31 04:02:03;;;;;;;;;;;;;;;;;;5110877;28;2341;-40
2022/10/31 04:04:31;;;;;;;;;;;;;;;;;;5110474;28;2608;-42
2022/10/31 04:07:00;;;;;;;;;;;;;;;;;;5111902;28;1546;-44
2022/10/31 04:09:28;;;;;;;;;;;;;;;;;;5110790;28;1898;-46
2022/10/31 04:11:58;;;;;;;;;;;;;;;;;;5110719;28;2153;-39
2022/10/31 04:14:36;;;;;;;;;;;;;;;;;;5110692;28;1999;-51
2022/10/31 04:17:05;;;;;;;;;;;;;;;;;;5118766;27;1997;-40
2022/10/31 04:19:37;;;;;;;;;;;;;;;;;;5131138;27;2179;-43
2022/10/31 04:22:04;;;;;;;;;;;;;;;;;;5132477;27;2212;-52
2022/10/31 04:24:31;;;;;;;;;;;;;;;;;;5130964;27;1783;-50
2022/10/31 04:26:58;;;;;;;;;;;;;;;;;;5115879;27;2054;-39
2022/10/31 04:29:27;;;;;;;;;;;;;;;;;;5127440;27;1951;-43
2022/10/31 04:31:54;;;;;;;;;;;;;;;;;;5111777;28;1754;-40
2022/10/31 04:34:22;;;;;;;;;;;;;;;;;;5131194;27;2157;-44
2022/10/31 04:36:49;;;;;;;;;;;;;;;;;;5131080;27;1434;-40
2022/10/31 04:39:17;;;;;;;;;;;;;;;;;;5132305;27;1684;-45
2022/10/31 04:42:08;;;;;;;;;;;;;;;;;;5131667;28;1859;-41
2022/10/31 04:44:35;;;;;;;;;;;;;;;;;;5131802;28;1468;-40
2022/10/31 04:47:02;;;;;;;;;;;;;;;;;;5114593;28;10231;-41
2022/10/31 04:49:30;;;;;;;;;;;;;;;;;;5111562;28;2042;-45
2022/10/31 04:51:58;;;;;;;;;;;;;;;;;;5095713;28;2209;-47
2022/10/31 04:54:25;;;;;;;;;;;;;;;;;;5089610;28;1911;-40
2022/10/31 04:57:24;;;;;;;;;;;;;;;;;;5078602;28;1830;-43
2022/10/31 04:59:54;;;;;;;;;;;;;;;;;;5089667;28;2167;-39
2022/10/31 05:02:23;;;;;;;;;;;;;;;;;;5091185;28;1821;-48
2022/10/31 05:04:55;;;;;;;;;;;;;;;;;;5089469;28;2013;-46
2022/10/31 05:07:23;;;;;;;;;;;;;;;;;;5098627;28;2045;-40
2022/10/31 05:09:50;;;;;;;;;;;;;;;;;;5100182;28;2410;-40
2022/10/31 05:12:18;;;;;;;;;;;;;;;;;;5105113;28;2081;-43
2022/10/31 05:15:08;;;;;;;;;;;;;;;;;;5110607;28;1845;-43
2022/10/31 05:18:01;;;;;;;;;;;;;;;;;;5093203;28;2033;-45
2022/10/31 05:20:47;;;;;;;;;;;;;;;;;;5090996;28;1908;-44
2022/10/31 05:23:28;;;;;;;;;;;;;;;;;;5074862;28;1946;-42
2022/10/31 05:25:55;;;;;;;;;;;;;;;;;;5089409;28;1759;-43
2022/10/31 05:28:22;;;;;;;;;;;;;;;;;;5090888;28;1763;-44
2022/10/31 05:30:50;;;;;;;;;;;;;;;;;;5089695;28;1973;-40
2022/10/31 05:33:17;;;;;;;;;;;;;;;;;;5090832;28;1905;-44
2022/10/31 05:36:02;;;;;;;;;;;;;;;;;;5090869;28;1420;-44
2022/10/31 05:38:41;;;;;;;;;;;;;;;;;;5090546;28;2052;-43
2022/10/31 05:41:26;;;;;;;;;;;;;;;;;;5089388;28;2187;-44
2022/10/31 05:44:03;;;;;;;;;;;;;;;;;;5090710;28;1680;-49
2022/10/31 05:46:35;;;;;;;;;;;;;;;;;;5092478;28;1854;-43
2022/10/31 05:49:35;;;;;;;;;;;;;;;;;;5070949;28;1981;-47
2022/10/31 05:52:21;;;;;;;;;;;;;;;;;;5107984;28;2094;-42
2022/10/31 05:54:55;;;;;;;;;;;;;;;;;;5093129;28;2152;-47
2022/10/31 05:57:22;;;;;;;;;;;;;;;;;;5094242;28;1249;-42
2022/10/31 05:59:52;;;;;;;;;;;;;;;;;;5093894;28;1913;-39
2022/10/31 06:02:22;;;;;;;;;;;;;;;;;;5091407;28;1863;-38
2022/10/31 06:05:16;;;;;;;;;;;;;;;;;;5105768;28;1270;-38
2022/10/31 06:07:43;;;;;;;;;;;;;;;;;;5111091;28;1843;-44
2022/10/31 06:10:11;;;;;;;;;;;;;;;;;;5112727;28;2523;-46
2022/10/31 06:12:38;;;;;;;;;;;;;;;;;;5111813;28;1574;-44
2022/10/31 06:15:31;;;;;;;;;;;;;;;;;;5101889;28;1684;-43
2022/10/31 06:18:04;;;;;;;;;;;;;;;;;;5112652;28;2394;-41
2022/10/31 06:20:43;;;;;;;;;;;;;;;;;;5112838;28;1567;-42
2022/10/31 06:23:11;;;;;;;;;;;;;;;;;;5112987;28;1864;-43
2022/10/31 06:25:40;;;;;;;;;;;;;;;;;;5112897;28;1647;-46
2022/10/31 06:28:07;;;;;;;;;;;;;;;;;;5112817;28;1755;-42
2022/10/31 06:30:55;;;;;;;;;;;;;;;;;;5113546;28;1906;-40
2022/10/31 06:33:22;;;;;;;;;;;;;;;;;;5112462;28;1765;-43
2022/10/31 06:36:00;;;;;;;;;;;;;;;;;;5096976;28;1591;-39
2022/10/31 06:38:28;;;;;;;;;;;;;;;;;;5112747;28;2339;-40
2022/10/31 06:40:56;;;;;;;;;;;;;;;;;;5109618;28;2134;-41
2022/10/31 06:43:27;;;;;;;;;;;;;;;;;;5092239;28;1824;-40
2022/10/31 06:46:17;;;;;;;;;;;;;;;;;;5091967;28;2144;-42
2022/10/31 06:49:09;;;;;;;;;;;;;;;;;;5093173;28;1775;-40
2022/10/31 06:51:41;;;;;;;;;;;;;;;;;;5101811;28;1914;-41
2022/10/31 06:54:08;;;;;;;;;;;;;;;;;;5093232;28;1657;-41
2022/10/31 06:56:35;;;;;;;;;;;;;;;;;;5090986;28;2044;-41
2022/10/31 06:59:03;;;;;;;;;;;;;;;;;;5091758;28;1985;-43
2022/10/31 07:01:50;;;;;;;;;;;;;;;;;;5092671;28;1514;-43
2022/10/31 07:04:19;;;;;;;;;;;;;;;;;;5091633;28;1900;-40
2022/10/31 07:06:50;;;;;;;;;;;;;;;;;;5091442;28;1671;-43
2022/10/31 07:09:18;;;;;;;;;;;;;;;;;;5091381;28;2110;-41
2022/10/31 07:11:46;;;;;;;;;;;;;;;;;;5091417;28;1969;-43
2022/10/31 07:14:14;;;;;;;;;;;;;;;;;;5091381;28;1555;-43
2022/10/31 07:16:41;;;;;;;;;;;;;;;;;;5091270;28;2092;-43
2022/10/31 07:19:15;;;;;;;;;;;;;;;;;;5091656;28;1777;-39
2022/10/31 07:21:42;;;;;;;;;;;;;;;;;;5091360;28;1828;-42
2022/10/31 07:24:14;;;;;;;;;;;;;;;;;;5091266;28;1637;-41
2022/10/31 07:26:42;;;;;;;;;;;;;;;;;;5092398;28;1782;-43
2022/10/31 07:29:09;;;;;;;;;;;;;;;;;;5092495;28;1993;-42
2022/10/31 07:31:40;;;;;;;;;;;;;;;;;;5091117;28;2228;-39
2022/10/31 07:34:13;;;;;;;;;;;;;;;;;;5092181;28;2031;-41
2022/10/31 07:37:04;;;;;;;;;;;;;;;;;;5083576;28;2177;-40
2022/10/31 07:39:32;;;;;;;;;;;;;;;;;;5091121;28;2134;-41
2022/10/31 07:41:59;;;;;;;;;;;;;;;;;;5091166;28;1877;-39
2022/10/31 07:44:27;;;;;;;;;;;;;;;;;;5090910;28;2042;-41
2022/10/31 07:47:16;;;;;;;;;;;;;;;;;;5092029;28;1785;-39
2022/10/31 07:50:08;;;;;;;;;;;;;;;;;;5085278;28;1905;-40
2022/10/31 07:53:04;;;;;;;;;;;;;;;;;;5088588;28;1714;-39
2022/10/31 07:55:51;;;;;;;;;;;;;;;;;;5090642;28;1327;-39
2022/10/31 07:58:19;;;;;;;;;;;;;;;;;;5090561;28;2014;-40
2022/10/31 08:00:47;;;;;;;;;;;;;;;;;;5090664;28;1882;-39
2022/10/31 08:03:28;;;;;;;;;;;;;;;;;;5090323;28;1969;-39
2022/10/31 08:06:14;;;;;;;;;;;;;;;;;;5091589;28;1917;-39
2022/10/31 08:08:41;;;;;;;;;;;;;;;;;;5091775;28;1925;-39
2022/10/31 08:11:09;;;;;;;;;;;;;;;;;;5090198;28;1981;-39
2022/10/31 08:13:37;;;;;;;;;;;;;;;;;;5090228;28;2176;-40
2022/10/31 08:16:07;;;;;;;;;;;;;;;;;;5090394;28;1736;-39
2022/10/31 08:18:40;;;;;;;;;;;;;;;;;;5091489;28;1593;-38
2022/10/31 08:21:11;;;;;;;;;;;;;;;;;;5090159;28;2041;-39
2022/10/31 08:23:39;;;;;;;;;;;;;;;;;;5091377;28;1781;-39
2022/10/31 08:26:07;;;;;;;;;;;;;;;;;;5089988;28;1842;-38
2022/10/31 08:28:34;;;;;;;;;;;;;;;;;;5090445;28;1947;-38
2022/10/31 08:31:02;;;;;;;;;;;;;;;;;;5090401;28;2183;-45
2022/10/31 08:33:55;;;;;;;;;;;;;;;;;;5082611;28;1914;-39
2022/10/31 08:36:44;;;;;;;;;;;;;;;;;;5091255;28;1943;-43
2022/10/31 08:39:26;;;;;;;;;;;;;;;;;;5090080;28;1769;-39
2022/10/31 08:41:58;;;;;;;;;;;;;;;;;;5090010;28;1852;-39
2022/10/31 08:44:25;;;;;;;;;;;;;;;;;;5091448;28;2097;-40
2022/10/31 08:46:53;;;;;;;;;;;;;;;;;;5090077;28;1275;-39
2022/10/31 08:49:22;;;;;;;;;;;;;;;;;;5089948;28;1778;-40
2022/10/31 08:51:49;;;;;;;;;;;;;;;;;;5104032;28;1956;-39
2022/10/31 08:54:19;;;;;;;;;;;;;;;;;;5110136;28;2284;-39
2022/10/31 08:56:55;;;;;;;;;;;;;;;;;;5111630;28;1814;-39
2022/10/31 08:59:34;;;;;;;;;;;;;;;;;;5100335;28;1843;-40
2022/10/31 09:02:19;;;;;;;;;;;;;;;;;;5099583;28;2093;-40
2022/10/31 09:04:49;;;;;;;;;;;;;;;;;;5090803;28;2113;-50
2022/10/31 09:07:16;;;;;;;;;;;;;;;;;;5100628;28;1984;-41
2022/10/31 09:09:48;;;;;;;;;;;;;;;;;;5102492;28;2198;-39
2022/10/31 09:12:17;;;;;;;;;;;;;;;;;;5105856;28;2127;-41
2022/10/31 09:15:08;;;;;;;;;;;;;;;;;;5093942;28;1976;-40
2022/10/31 09:17:46;;;;;;;;;;;;;;;;;;5087770;28;1808;-39
2022/10/31 09:20:28;;;;;;;;;;;;;;;;;;5089591;28;1892;-39
2022/10/31 09:22:57;;;;;;;;;;;;;;;;;;5091564;28;1871;-40
2022/10/31 09:25:28;;;;;;;;;;;;;;;;;;5091286;28;1989;-39
2022/10/31 09:28:16;;;;;;;;;;;;;;;;;;5092995;28;1838;-40
2022/10/31 09:30:49;;;;;;;;;;;;;;;;;;5091268;28;2026;-39
2022/10/31 09:33:35;;;;;;;;;;;;;;;;;;5093188;28;1839;-41
2022/10/31 09:36:27;;;;;;;;;;;;;;;;;;5094275;28;1868;-39
2022/10/31 09:38:54;;;;;;;;;;;;;;;;;;5093446;28;2302;-42
2022/10/31 09:41:32;;;;;;;;;;;;;;;;;;5094557;28;1713;-40
2022/10/31 09:44:00;;;;;;;;;;;;;;;;;;5094481;28;1915;-46
2022/10/31 09:46:48;;;;;;;;;;;;;;;;;;5094546;28;1865;-39
2022/10/31 09:49:30;;;;;;;;;;;;;;;;;;5094486;28;1940;-39
2022/10/31 09:52:03;;;;;;;;;;;;;;;;;;5109817;28;1922;-39
2022/10/31 09:54:40;;;;;;;;;;;;;;;;;;5114454;28;1893;-44
2022/10/31 09:57:13;;;;;;;;;;;;;;;;;;5114877;28;1854;-39
2022/10/31 09:59:44;;;;;;;;;;;;;;;;;;5113014;28;1887;-39
2022/10/31 10:02:12;;;;;;;;;;;;;;;;;;5113342;28;2359;-39
2022/10/31 10:04:57;;;;;;;;;;;;;;;;;;5114303;28;2275;-39
2022/10/31 10:07:48;;;;;;;;;;;;;;;;;;5112926;28;2155;-40
2022/10/31 10:10:15;;;;;;;;;;;;;;;;;;5114419;28;1932;-47
2022/10/31 10:12:56;;;;;;;;;;;;;;;;;;5114066;28;1913;-38
2022/10/31 10:15:45;;;;;;;;;;;;;;;;;;5113211;28;1814;-39
2022/10/31 10:18:13;;;;;;;;;;;;;;;;;;5114071;28;1919;-40
2022/10/31 10:20:40;;;;;;;;;;;;;;;;;;5114020;28;1997;-38
2022/10/31 10:23:25;;;;;;;;;;;;;;;;;;5113824;28;1887;-38
2022/10/31 10:25:59;;;;;;;;;;;;;;;;;;5113575;28;1673;-39
2022/10/31 10:28:28;;;;;;;;;;;;;;;;;;5113762;28;1734;-40
2022/10/31 10:31:00;;;;;;;;;;;;;;;;;;5112998;28;1902;-41
2022/10/31 10:33:27;;;;;;;;;;;;;;;;;;5113645;28;1865;-38
2022/10/31 10:36:02;;;;;;;;;;;;;;;;;;5113802;28;1642;-39
2022/10/31 10:38:38;;;;;;;;;;;;;;;;;;5113853;27;1754;-40
2022/10/31 10:41:09;;;;;;;;;;;;;;;;;;5113810;28;1743;-40
2022/10/31 10:43:38;;;;;;;;;;;;;;;;;;5113753;28;2181;-39
2022/10/31 10:49:24;;;;;;;;;;;;;;;;;;5113573;28;2238;-39
2022/10/31 10:52:02;;;;;;;;;;;;;;;;;;5108412;28;2222;-39
2022/10/31 10:54:56;;;;;;;;;;;;;;;;;;5093276;28;1943;-40
2022/10/31 10:57:26;;;;;;;;;;;;;;;;;;5093096;28;1931;-40
2022/10/31 10:59:54;;;;;;;;;;;;;;;;;;5093198;28;2004;-39
2022/10/31 11:02:25;;;;;;;;;;;;;;;;;;5093080;28;2148;-39
2022/10/31 11:04:53;;;;;;;;;;;;;;;;;;5092706;28;1803;-39
2022/10/31 11:07:21;;;;;;;;;;;;;;;;;;5092820;28;1790;-39
2022/10/31 11:09:49;;;;;;;;;;;;;;;;;;5092479;28;2161;-39
2022/10/31 11:12:19;;;;;;;;;;;;;;;;;;5093126;28;1968;-38
2022/10/31 11:14:49;;;;;;;;;;;;;;;;;;5092692;28;1984;-38
2022/10/31 11:17:26;;;;;;;;;;;;;;;;;;5092880;28;1841;-39
2022/10/31 11:20:23;;;;;;;;;;;;;;;;;;5092665;28;1731;-39
2022/10/31 11:23:00;;;;;;;;;;;;;;;;;;5087753;28;1965;-38
2022/10/31 11:25:27;;;;;;;;;;;;;;;;;;5092584;28;2152;-39
2022/10/31 11:28:04;;;;;;;;;;;;;;;;;;5092482;28;1593;-39
2022/10/31 11:30:36;;;;;;;;;;;;;;;;;;5092078;28;2248;-39
2022/10/31 11:33:03;;;;;;;;;;;;;;;;;;5092490;28;1974;-39
2022/10/31 11:35:30;;;;;;;;;;;;;;;;;;5092384;28;2411;-39
2022/10/31 11:37:59;;;;;;;;;;;;;;;;;;5092372;28;1862;-47
2022/10/31 11:40:27;;;;;;;;;;;;;;;;;;5092154;28;1769;-38
2022/10/31 11:42:56;;;;;;;;;;;;;;;;;;5091846;28;1793;-40
2022/10/31 11:45:24;;;;;;;;;;;;;;;;;;5092112;28;1396;-39
2022/10/31 11:47:52;;;;;;;;;;;;;;;;;;5092113;28;1886;-39
2022/10/31 11:50:27;;;;;;;;;;;;;;;;;;5092104;28;1533;-38
2022/10/31 11:52:54;;;;;;;;;;;;;;;;;;5092010;28;1975;-39
2022/10/31 11:55:26;;;;;;;;;;;;;;;;;;5091875;28;1805;-39
2022/10/31 11:57:53;;;;;;;;;;;;;;;;;;5091971;28;1727;-39
2022/10/31 12:00:23;;;;;;;;;;;;;;;;;;5091838;28;1624;-39
2022/10/31 12:02:50;;;;;;;;;;;;;;;;;;5092070;28;1553;-39
2022/10/31 12:05:32;;;;;;;;;;;;;;;;;;5092000;28;1884;-39
2022/10/31 12:08:00;;;;;;;;;;;;;;;;;;5091471;28;1991;-39
2022/10/31 12:10:47;;;;;;;;;;;;;;;;;;5091722;28;1914;-40
2022/10/31 12:13:28;;;;;;;;;;;;;;;;;;5091927;28;2486;-38
2022/10/31 12:15:59;;;;;;;;;;;;;;;;;;5091751;28;1651;-38
2022/10/31 12:18:29;;;;;;;;;;;;;;;;;;5091528;28;2011;-39
2022/10/31 12:20:57;;;;;;;;;;;;;;;;;;5091365;28;1963;-43
2022/10/31 12:23:24;;;;;;;;;;;;;;;;;;5091742;28;1905;-38
2022/10/31 12:26:00;;;;;;;;;;;;;;;;;;5096032;28;1864;-39
2022/10/31 12:28:46;;;;;;;;;;;;;;;;;;5111932;28;2139;-39
2022/10/31 12:31:38;;;;;;;;;;;;;;;;;;5096660;28;1951;-39
2022/10/31 12:34:24;;;;;;;;;;;;;;;;;;5091285;28;1946;-39
2022/10/31 12:37:21;;;;;;;;;;;;;;;;;;5091404;28;1843;-39
2022/10/31 12:40:03;;;;;;;;;;;;;;;;;;5090682;28;1851;-38
2022/10/31 12:42:49;;;;;;;;;;;;;;;;;;5091244;28;1961;-39
2022/10/31 12:45:23;;;;;;;;;;;;;;;;;;5091420;28;1726;-41
2022/10/31 12:48:06;;;;;;;;;;;;;;;;;;5091402;28;2278;-39
2022/10/31 12:50:58;;;;;;;;;;;;;;;;;;5094818;28;1773;-40
2022/10/31 12:53:29;;;;;;;;;;;;;;;;;;5111532;28;1910;-39
2022/10/31 12:56:06;;;;;;;;;;;;;;;;;;5113738;28;1828;-39
2022/10/31 12:58:59;;;;;;;;;;;;;;;;;;5115914;28;1638;-39
2022/10/31 13:01:29;;;;;;;;;;;;;;;;;;5115479;28;1918;-38
2022/10/31 13:04:12;;;;;;;;;;;;;;;;;;5115627;28;1629;-39
2022/10/31 13:06:41;;;;;;;;;;;;;;;;;;5115177;28;1983;-38
2022/10/31 13:09:13;;;;;;;;;;;;;;;;;;5115583;28;1908;-39
2022/10/31 13:11:43;;;;;;;;;;;;;;;;;;5115427;28;1910;-39
2022/10/31 13:14:13;;;;;;;;;;;;;;;;;;5115346;28;1652;-39
2022/10/31 13:16:42;;;;;;;;;;;;;;;;;;5115363;28;1581;-39
2022/10/31 13:19:20;;;;;;;;;;;;;;;;;;5115447;28;1561;-39
2022/10/31 13:21:57;;;;;;;;;;;;;;;;;;5115025;28;2013;-39
2022/10/31 13:24:30;;;;;;;;;;;;;;;;;;5115350;28;1943;-40
2022/10/31 13:26:59;;;;;;;;;;;;;;;;;;5115130;28;1728;-39
2022/10/31 13:29:50;;;;;;;;;;;;;;;;;;5114600;28;2163;-44
2022/10/31 13:32:18;;;;;;;;;;;;;;;;;;5102416;28;2063;-39
2022/10/31 13:34:47;;;;;;;;;;;;;;;;;;5093022;28;2064;-39
2022/10/31 13:37:14;;;;;;;;;;;;;;;;;;5093799;28;2045;-40
2022/10/31 13:39:48;;;;;;;;;;;;;;;;;;5094150;28;2122;-39
2022/10/31 13:42:24;;;;;;;;;;;;;;;;;;5094239;28;2088;-43
2022/10/31 13:44:51;;;;;;;;;;;;;;;;;;5094491;28;1309;-40
2022/10/31 13:47:21;;;;;;;;;;;;;;;;;;5093823;28;1692;-40
2022/10/31 13:49:48;;;;;;;;;;;;;;;;;;5092546;28;1625;-39
2022/10/31 13:52:17;;;;;;;;;;;;;;;;;;5091303;28;1918;-40
2022/10/31 13:54:48;;;;;;;;;;;;;;;;;;5092724;28;2016;-40
2022/10/31 13:57:17;;;;;;;;;;;;;;;;;;5093016;28;2029;-39
2022/10/31 13:59:54;;;;;;;;;;;;;;;;;;5092307;28;1966;-38
2022/10/31 14:02:31;;;;;;;;;;;;;;;;;;5092441;28;1736;-39
2022/10/31 14:05:01;;;;;;;;;;;;;;;;;;5091707;28;1810;-38
2022/10/31 14:07:29;;;;;;;;;;;;;;;;;;5091552;28;1408;-39
2022/10/31 14:09:56;;;;;;;;;;;;;;;;;;5092137;28;1950;-38
2022/10/31 14:12:28;;;;;;;;;;;;;;;;;;5092265;28;1980;-43
2022/10/31 14:15:02;;;;;;;;;;;;;;;;;;5092348;28;2046;-39
2022/10/31 14:17:32;;;;;;;;;;;;;;;;;;5092156;28;1630;-39
2022/10/31 14:20:01;;;;;;;;;;;;;;;;;;5093099;28;1666;-39
2022/10/31 14:22:29;;;;;;;;;;;;;;;;;;5094004;28;1775;-39
2022/10/31 14:24:58;;;;;;;;;;;;;;;;;;5093592;28;1424;-39
2022/10/31 14:27:26;;;;;;;;;;;;;;;;;;5093972;28;1960;-39
2022/10/31 14:29:53;;;;;;;;;;;;;;;;;;5093620;28;2096;-41
2022/10/31 14:32:23;;;;;;;;;;;;;;;;;;5093781;28;1971;-42
2022/10/31 14:34:50;;;;;;;;;;;;;;;;;;5093622;28;1805;-39
2022/10/31 14:37:19;;;;;;;;;;;;;;;;;;5093611;28;2023;-51
2022/10/31 14:40:03;;;;;;;;;;;;;;;;;;5093525;28;2110;-39
2022/10/31 14:42:34;;;;;;;;;;;;;;;;;;5093413;28;1662;-38
2022/10/31 14:45:17;;;;;;;;;;;;;;;;;;5093462;28;2129;-40
2022/10/31 14:48:03;;;;;;;;;;;;;;;;;;5093358;28;1566;-39
2022/10/31 14:50:49;;;;;;;;;;;;;;;;;;5096998;28;1852;-39
2022/10/31 14:53:21;;;;;;;;;;;;;;;;;;5113499;28;1906;-38
2022/10/31 14:55:49;;;;;;;;;;;;;;;;;;5113626;28;1854;-39
2022/10/31 14:58:34;;;;;;;;;;;;;;;;;;5112272;28;1476;-39
2022/10/31 15:01:06;;;;;;;;;;;;;;;;;;5113276;28;1683;-41
2022/10/31 15:03:35;;;;;;;;;;;;;;;;;;5113267;28;1910;-39
2022/10/31 15:06:05;;;;;;;;;;;;;;;;;;5113304;28;1848;-40
2022/10/31 15:08:33;;;;;;;;;;;;;;;;;;5113466;28;1403;-45
2022/10/31 15:11:14;;;;;;;;;;;;;;;;;;5113276;28;1707;-39
2022/10/31 15:13:43;;;;;;;;;;;;;;;;;;5112626;28;1978;-39
2022/10/31 15:16:11;;;;;;;;;;;;;;;;;;5113064;28;1570;-39
2022/10/31 15:18:44;;;;;;;;;;;;;;;;;;5112233;28;1458;-38
2022/10/31 15:21:14;;;;;;;;;;;;;;;;;;5111780;28;2147;-39
2022/10/31 15:23:42;;;;;;;;;;;;;;;;;;5113057;28;1462;-38
2022/10/31 15:26:17;;;;;;;;;;;;;;;;;;5112827;28;1693;-44
2022/10/31 15:28:45;;;;;;;;;;;;;;;;;;5112924;28;1449;-43
2022/10/31 15:31:13;;;;;;;;;;;;;;;;;;5112755;28;1858;-39
2022/10/31 15:33:41;;;;;;;;;;;;;;;;;;5112818;28;2083;-40
2022/10/31 15:36:21;;;;;;;;;;;;;;;;;;5112647;28;1680;-40
2022/10/31 15:38:51;;;;;;;;;;;;;;;;;;5112748;28;1862;-39
2022/10/31 15:41:38;;;;;;;;;;;;;;;;;;5112971;28;1918;-40
2022/10/31 15:44:34;;;;;;;;;;;;;;;;;;5108704;28;1802;-39
2022/10/31 15:47:06;;;;;;;;;;;;;;;;;;5095694;28;1525;-39
2022/10/31 15:50:04;;;;;;;;;;;;;;;;;;5092593;28;1875;-41
2022/10/31 15:52:42;;;;;;;;;;;;;;;;;;5091250;28;1973;-39
2022/10/31 15:55:18;;;;;;;;;;;;;;;;;;5091836;28;2039;-39
2022/10/31 15:57:50;;;;;;;;;;;;;;;;;;5091967;28;1726;-43
2022/10/31 16:00:24;;;;;;;;;;;;;;;;;;5091949;28;1883;-39
2022/10/31 16:03:02;;;;;;;;;;;;;;;;;;5091936;28;1822;-40
2022/10/31 16:05:34;;;;;;;;;;;;;;;;;;5091862;28;1962;-38
2022/10/31 16:08:02;;;;;;;;;;;;;;;;;;5092135;28;2277;-50
2022/10/31 16:10:32;;;;;;;;;;;;;;;;;;5091761;28;1887;-59
2022/10/31 16:13:00;;;;;;;;;;;;;;;;;;5091761;28;1902;-39
2022/10/31 16:15:29;;;;;;;;;;;;;;;;;;5091600;28;1849;-39
2022/10/31 16:17:56;;;;;;;;;;;;;;;;;;5091485;28;1775;-39
2022/10/31 16:20:28;;;;;;;;;;;;;;;;;;5091511;28;1875;-39
2022/10/31 16:22:58;;;;;;;;;;;;;;;;;;5091507;28;1974;-39
2022/10/31 16:25:27;;;;;;;;;;;;;;;;;;5091490;28;1832;-38
2022/10/31 16:27:56;;;;;;;;;;;;;;;;;;5091399;28;1497;-39
2022/10/31 16:30:39;;;;;;;;;;;;;;;;;;5091382;28;1657;-38
2022/10/31 16:33:40;;;;;;;;;;;;;;;;;;5107883;28;2000;-41
2022/10/31 16:36:31;;;;;;;;;;;;;;;;;;5111425;28;1940;-39
2022/10/31 16:39:02;;;;;;;;;;;;;;;;;;5111445;28;1572;-39
2022/10/31 16:41:30;;;;;;;;;;;;;;;;;;5111617;28;1872;-39
2022/10/31 16:43:57;;;;;;;;;;;;;;;;;;5111222;28;1944;-39
2022/10/31 16:46:25;;;;;;;;;;;;;;;;;;5111790;28;2144;-42
2022/10/31 16:48:53;;;;;;;;;;;;;;;;;;5111546;28;1442;-39
2022/10/31 16:51:24;;;;;;;;;;;;;;;;;;5100578;28;1672;-39
2022/10/31 16:53:51;;;;;;;;;;;;;;;;;;5091161;28;1910;-39
2022/10/31 16:56:27;;;;;;;;;;;;;;;;;;5091117;28;1986;-39
2022/10/31 16:58:54;;;;;;;;;;;;;;;;;;5091019;28;1763;-45
2022/10/31 17:01:21;;;;;;;;;;;;;;;;;;5091058;28;2249;-40
2022/10/31 17:03:50;;;;;;;;;;;;;;;;;;5090873;28;2026;-43
2022/10/31 17:06:17;;;;;;;;;;;;;;;;;;5090875;28;1461;-38
2022/10/31 17:08:45;;;;;;;;;;;;;;;;;;5090899;28;2136;-41
2022/10/31 17:11:16;;;;;;;;;;;;;;;;;;5090870;28;1479;-43
2022/10/31 17:13:43;;;;;;;;;;;;;;;;;;5090698;28;1893;-38
2022/10/31 17:16:11;;;;;;;;;;;;;;;;;;5090819;28;1754;-38
2022/10/31 17:18:38;;;;;;;;;;;;;;;;;;5091000;28;1588;-39
2022/10/31 17:21:06;;;;;;;;;;;;;;;;;;5090946;28;1666;-40
2022/10/31 17:23:33;;;;;;;;;;;;;;;;;;5091005;28;1848;-39
2022/10/31 17:26:00;;;;;;;;;;;;;;;;;;5090904;28;1897;-38
2022/10/31 17:28:27;;;;;;;;;;;;;;;;;;5090827;28;1532;-40
2022/10/31 17:30:57;;;;;;;;;;;;;;;;;;5090761;28;1687;-41
2022/10/31 17:33:24;;;;;;;;;;;;;;;;;;5090700;28;1905;-39
2022/10/31 17:35:53;;;;;;;;;;;;;;;;;;5090858;28;1595;-38
2022/10/31 17:38:20;;;;;;;;;;;;;;;;;;5095990;28;2084;-39
2022/10/31 17:40:47;;;;;;;;;;;;;;;;;;5106834;28;1824;-40
2022/10/31 17:43:14;;;;;;;;;;;;;;;;;;5093003;28;2162;-39
2022/10/31 17:45:42;;;;;;;;;;;;;;;;;;5094133;28;1998;-38